createdAt,value
2022-10-17T00:02:01.486Z,14.44
2022-10-17T00:04:28.007Z,14.39
2022-10-17T00:06:54.886Z,14.29
2022-10-17T00:09:21.420Z,14.20
2022-10-17T00:11:47.931Z,14.12
2022-10-17T00:14:14.447Z,14.02
2022-10-17T00:16:41.048Z,14.08
2022-10-17T00:19:07.895Z,14.40
2022-10-17T00:21:34.469Z,14.95
2022-10-17T00:24:01.550Z,15.56
2022-10-17T00:26:30.954Z,15.93
2022-10-17T00:28:57.563Z,16.23
2022-10-17T00:31:24.907Z,16.48
2022-10-17T00:33:52.346Z,16.57
2022-10-17T00:36:22.582Z,16.83
2022-10-17T00:38:55.620Z,17.03
2022-10-17T00:41:25.463Z,17.08
2022-10-17T00:43:58.044Z,17.06
2022-10-17T00:46:30.230Z,17.16
2022-10-17T00:48:58.832Z,17.28
2022-10-17T00:51:34.387Z,17.36
2022-10-17T00:54:02.897Z,17.34
2022-10-17T00:56:30.443Z,17.34
2022-10-17T00:58:57.262Z,17.35
2022-10-17T01:01:24.034Z,17.41
2022-10-17T01:03:50.709Z,17.45
2022-10-17T01:06:17.312Z,17.49
2022-10-17T01:08:43.969Z,17.55
2022-10-17T01:11:25.614Z,17.49
2022-10-17T01:13:59.137Z,17.53
2022-10-17T01:16:25.899Z,17.43
2022-10-17T01:19:01.681Z,17.36
2022-10-17T01:21:40.183Z,17.43
2022-10-17T01:24:37.740Z,17.40
2022-10-17T01:27:35.270Z,17.41
2022-10-17T01:30:01.688Z,17.45
2022-10-17T01:32:35.287Z,17.49
2022-10-17T01:35:10.608Z,17.61
2022-10-17T01:37:58.208Z,17.68
2022-10-17T01:40:27.501Z,17.58
2022-10-17T01:43:25.930Z,17.66
2022-10-17T01:46:00.376Z,17.58
2022-10-17T01:48:34.441Z,17.69
2022-10-17T01:51:11.419Z,17.72
2022-10-17T01:53:45.735Z,17.71
2022-10-17T01:56:14.625Z,17.79
2022-10-17T01:58:50.714Z,17.77
2022-10-17T02:01:18.942Z,17.83
2022-10-17T02:03:47.515Z,17.73
2022-10-17T02:06:13.970Z,17.76
2022-10-17T02:08:49.455Z,17.66
2022-10-17T02:11:23.677Z,17.58
2022-10-17T02:14:05.333Z,17.49
2022-10-17T02:17:04.265Z,17.48
2022-10-17T02:19:49.509Z,17.46
2022-10-17T02:22:28.488Z,17.25
2022-10-17T02:25:02.814Z,17.24
2022-10-17T02:27:43.890Z,17.33
2022-10-17T02:30:42.939Z,17.29
2022-10-17T02:33:14.037Z,17.33
2022-10-17T02:35:46.312Z,17.21
2022-10-17T02:38:14.377Z,17.13
2022-10-17T02:40:42.661Z,17.01
2022-10-17T02:43:09.301Z,16.87
2022-10-17T02:45:37.887Z,16.71
2022-10-17T02:48:23.916Z,16.79
2022-10-17T02:51:12.083Z,16.72
2022-10-17T02:53:55.585Z,16.60
2022-10-17T02:56:24.758Z,16.41
2022-10-17T02:58:55.957Z,16.20
2022-10-17T03:01:22.906Z,16.02
2022-10-17T03:03:49.408Z,15.95
2022-10-17T03:06:16.123Z,15.93
2022-10-17T03:08:42.634Z,15.78
2022-10-17T03:11:09.288Z,15.74
2022-10-17T03:13:38.963Z,15.73
2022-10-17T03:16:06.652Z,15.73
2022-10-17T03:18:33.126Z,15.73
2022-10-17T03:20:59.712Z,15.70
2022-10-17T03:23:26.182Z,15.72
2022-10-17T03:25:52.718Z,15.69
2022-10-17T03:28:19.192Z,15.72
2022-10-17T03:30:45.699Z,15.69
2022-10-17T03:33:12.244Z,15.66
2022-10-17T03:35:40.504Z,15.50
2022-10-17T03:38:07.203Z,15.38
2022-10-17T03:40:33.670Z,15.30
2022-10-17T03:43:00.118Z,15.50
2022-10-17T03:45:26.601Z,15.61
2022-10-17T03:47:53.109Z,15.56
2022-10-17T03:50:19.625Z,15.62
2022-10-17T03:52:48.426Z,15.60
2022-10-17T03:55:15.895Z,15.47
2022-10-17T03:57:44.794Z,15.31
2022-10-17T04:00:13.071Z,15.40
2022-10-17T04:02:39.737Z,15.48
2022-10-17T04:05:06.875Z,15.67
2022-10-17T04:07:33.401Z,15.90
2022-10-17T04:09:59.870Z,15.91
2022-10-17T04:12:26.426Z,16.09
2022-10-17T04:14:53.226Z,16.16
2022-10-17T04:17:19.715Z,16.20
2022-10-17T04:19:46.230Z,16.07
2022-10-17T04:22:12.708Z,15.85
2022-10-17T04:24:39.155Z,15.63
2022-10-17T04:27:05.611Z,15.47
2022-10-17T04:29:32.159Z,15.46
2022-10-17T04:31:58.750Z,15.50
2022-10-17T04:34:25.204Z,15.60
2022-10-17T04:36:52.011Z,15.58
2022-10-17T04:39:18.709Z,15.60
2022-10-17T04:41:45.207Z,15.59
2022-10-17T04:44:12.181Z,15.52
2022-10-17T04:46:38.728Z,15.64
2022-10-17T04:49:05.210Z,16.02
2022-10-17T04:51:32.127Z,16.35
2022-10-17T04:53:58.620Z,16.59
2022-10-17T04:56:25.759Z,16.73
2022-10-17T04:58:52.604Z,16.75
2022-10-17T05:01:22.027Z,16.91
2022-10-17T05:03:49.036Z,16.89
2022-10-17T05:06:21.916Z,16.83
2022-10-17T05:08:48.982Z,16.88
2022-10-17T05:11:24.120Z,17.05
2022-10-17T05:13:56.345Z,17.11
2022-10-17T05:16:23.807Z,17.11
2022-10-17T05:18:53.064Z,17.16
2022-10-17T05:21:20.428Z,17.14
2022-10-17T05:23:47.060Z,17.12
2022-10-17T05:26:14.223Z,17.09
2022-10-17T05:28:41.266Z,17.05
2022-10-17T05:31:10.164Z,17.05
2022-10-17T05:33:37.473Z,16.87
2022-10-17T05:36:04.779Z,16.88
2022-10-17T05:38:31.264Z,16.92
2022-10-17T05:41:03.213Z,16.87
2022-10-17T05:43:30.118Z,16.83
2022-10-17T05:45:57.321Z,16.89
2022-10-17T05:48:24.112Z,16.96
2022-10-17T05:50:57.111Z,17.04
2022-10-17T05:53:23.603Z,17.05
2022-10-17T05:55:57.790Z,17.22
2022-10-17T05:58:45.605Z,17.17
2022-10-17T06:01:12.875Z,17.30
2022-10-17T06:03:39.697Z,17.38
2022-10-17T06:06:12.229Z,17.46
2022-10-17T06:08:39.260Z,17.48
2022-10-17T06:11:09.257Z,17.58
2022-10-17T06:13:37.841Z,17.59
2022-10-17T06:16:04.593Z,17.60
2022-10-17T06:18:31.099Z,17.64
2022-10-17T06:21:05.443Z,17.58
2022-10-17T06:23:32.551Z,17.58
2022-10-17T06:26:04.203Z,17.60
2022-10-17T06:28:30.974Z,17.62
2022-10-17T06:30:57.687Z,17.68
2022-10-17T06:33:24.329Z,17.69
2022-10-17T06:35:54.979Z,17.62
2022-10-17T06:38:22.015Z,17.56
2022-10-17T06:40:48.727Z,17.52
2022-10-17T06:43:15.458Z,17.56
2022-10-17T06:45:42.040Z,17.64
2022-10-17T06:48:08.856Z,17.65
2022-10-17T06:50:35.502Z,17.68
2022-10-17T06:53:02.142Z,17.73
2022-10-17T06:55:28.814Z,17.73
2022-10-17T06:57:56.475Z,17.71
2022-10-17T07:00:23.607Z,17.71
2022-10-17T07:02:50.272Z,17.75
2022-10-17T07:05:17.378Z,17.76
2022-10-17T07:07:45.515Z,17.66
2022-10-17T07:10:13.966Z,17.72
2022-10-17T07:12:40.517Z,17.73
2022-10-17T07:15:07.472Z,17.75
2022-10-17T07:17:34.150Z,17.68
2022-10-17T07:20:00.813Z,17.78
2022-10-17T07:22:27.517Z,17.75
2022-10-17T07:24:54.012Z,17.82
2022-10-17T07:27:20.957Z,17.83
2022-10-17T07:29:47.602Z,17.82
2022-10-17T07:32:14.133Z,17.78
2022-10-17T07:34:40.914Z,17.79
2022-10-17T07:37:07.559Z,17.89
2022-10-17T07:39:35.692Z,18.00
2022-10-17T07:42:02.337Z,18.10
2022-10-17T07:44:29.154Z,18.14
2022-10-17T07:46:55.771Z,18.23
2022-10-17T07:49:22.264Z,18.38
2022-10-17T07:51:49.557Z,18.48
2022-10-17T07:54:18.220Z,18.94
2022-10-17T07:56:50.292Z,19.30
2022-10-17T07:59:18.619Z,19.41
2022-10-17T08:01:45.238Z,19.52
2022-10-17T08:04:11.839Z,19.79
2022-10-17T08:06:38.579Z,20.21
2022-10-17T08:09:05.241Z,20.70
2022-10-17T08:11:31.872Z,20.83
2022-10-17T08:13:58.367Z,20.96
2022-10-17T08:16:24.919Z,21.12
2022-10-17T08:18:51.580Z,21.23
2022-10-17T08:21:18.127Z,21.53
2022-10-17T08:23:44.593Z,21.83
2022-10-17T08:26:13.525Z,22.21
2022-10-17T08:28:40.626Z,22.64
2022-10-17T08:31:10.104Z,22.84
2022-10-17T08:33:36.688Z,22.82
2022-10-17T08:36:05.568Z,23.09
2022-10-17T08:38:35.598Z,23.22
2022-10-17T08:41:24.532Z,23.75
2022-10-17T08:44:17.403Z,24.05
2022-10-17T08:46:48.056Z,24.39
2022-10-17T08:49:25.528Z,24.40
2022-10-17T08:51:58.954Z,24.21
2022-10-17T08:54:41.260Z,23.90
2022-10-17T08:57:13.330Z,23.83
2022-10-17T08:59:40.002Z,23.62
2022-10-17T09:02:27.282Z,24.04
2022-10-17T09:05:22.438Z,24.65
2022-10-17T09:08:09.183Z,25.23
2022-10-17T09:10:56.962Z,25.69
2022-10-17T09:13:32.553Z,25.85
2022-10-17T09:16:21.349Z,26.03
2022-10-17T09:19:01.172Z,26.26
2022-10-17T09:21:39.599Z,26.28
2022-10-17T09:24:16.282Z,26.68
2022-10-17T09:26:45.456Z,26.87
2022-10-17T09:29:20.108Z,26.87
2022-10-17T09:34:31.578Z,27.02
2022-10-17T09:37:00.992Z,27.07
2022-10-17T09:39:33.036Z,26.89
2022-10-17T09:42:01.559Z,26.80
2022-10-17T09:44:33.085Z,27.00
2022-10-17T09:47:20.512Z,26.93
2022-10-17T09:49:48.502Z,26.93
2022-10-17T09:52:27.914Z,26.92
2022-10-17T09:54:57.492Z,26.89
2022-10-17T09:57:24.299Z,27.20
2022-10-17T10:00:00.107Z,27.45
2022-10-17T10:02:29.664Z,27.43
2022-10-17T10:05:07.108Z,27.86
2022-10-17T10:07:37.355Z,27.83
2022-10-17T10:10:07.167Z,28.01
2022-10-17T10:12:37.464Z,27.73
2022-10-17T10:15:32.766Z,27.81
2022-10-17T10:17:59.388Z,28.17
2022-10-17T10:20:36.911Z,28.21
2022-10-17T10:23:18.335Z,28.26
2022-10-17T10:25:59.265Z,28.30
2022-10-17T10:28:32.093Z,28.06
2022-10-17T10:31:04.740Z,27.79
2022-10-17T10:33:33.720Z,27.70
2022-10-17T10:36:09.890Z,27.52
2022-10-17T10:38:40.950Z,27.31
2022-10-17T10:41:09.781Z,27.23
2022-10-17T10:43:42.317Z,27.26
2022-10-17T10:46:27.409Z,27.24
2022-10-17T10:49:01.659Z,27.41
2022-10-17T10:51:41.383Z,27.74
2022-10-17T10:54:23.514Z,27.64
2022-10-17T10:56:54.214Z,26.97
2022-10-17T10:59:39.692Z,26.96
2022-10-17T11:02:24.850Z,26.57
2022-10-17T11:04:58.266Z,26.67
2022-10-17T11:07:36.230Z,26.49
2022-10-17T11:10:44.477Z,26.64
2022-10-17T11:13:16.974Z,26.45
2022-10-17T11:15:53.786Z,26.38
2022-10-17T11:18:55.089Z,26.51
2022-10-17T11:22:03.725Z,26.52
2022-10-17T11:24:38.918Z,26.34
2022-10-17T11:27:07.237Z,26.58
2022-10-17T11:29:39.602Z,26.83
2022-10-17T11:32:21.754Z,26.99
2022-10-17T11:34:53.669Z,27.23
2022-10-17T11:37:29.194Z,27.12
2022-10-17T11:40:33.728Z,26.95
2022-10-17T11:43:24.440Z,27.10
2022-10-17T11:45:57.054Z,26.95
2022-10-17T11:48:34.193Z,27.09
2022-10-17T11:54:34.067Z,26.88
2022-10-17T11:57:28.346Z,26.84
2022-10-17T12:00:18.578Z,27.03
2022-10-17T12:02:53.436Z,27.21
2022-10-17T12:05:57.481Z,27.38
2022-10-17T12:08:25.252Z,27.38
2022-10-17T12:11:01.139Z,27.18
2022-10-17T12:13:28.144Z,27.33
2022-10-17T12:15:56.018Z,27.27
2022-10-17T12:18:28.120Z,27.34
2022-10-17T12:21:00.078Z,27.35
2022-10-17T12:23:32.119Z,27.34
2022-10-17T12:26:05.123Z,27.10
2022-10-17T12:28:37.696Z,27.05
2022-10-17T12:31:10.166Z,27.08
2022-10-17T12:33:39.515Z,27.18
2022-10-17T12:36:18.646Z,27.22
2022-10-17T12:38:50.942Z,27.39
2022-10-17T12:41:40.227Z,27.46
2022-10-17T12:44:12.807Z,27.51
2022-10-17T12:46:44.328Z,27.67
2022-10-17T12:49:48.058Z,27.35
2022-10-17T12:52:22.127Z,27.32
2022-10-17T12:55:13.008Z,27.09
2022-10-17T12:57:56.827Z,27.15
2022-10-17T13:00:37.318Z,27.09
2022-10-17T13:03:11.801Z,27.00
2022-10-17T13:05:42.501Z,27.06
2022-10-17T13:08:21.071Z,27.27
2022-10-17T13:10:52.434Z,27.47
2022-10-17T13:13:23.799Z,27.49
2022-10-17T13:15:53.000Z,27.43
2022-10-17T13:18:25.738Z,27.12
2022-10-17T13:21:07.089Z,27.15
2022-10-17T13:23:37.836Z,26.90
2022-10-17T13:26:07.411Z,26.86
2022-10-17T13:28:38.506Z,26.70
2022-10-17T13:31:06.528Z,26.68
2022-10-17T13:33:37.895Z,26.40
2022-10-17T13:36:08.296Z,26.31
2022-10-17T13:38:38.951Z,26.22
2022-10-17T13:41:34.948Z,26.13
2022-10-17T13:44:03.655Z,26.08
2022-10-17T13:46:38.339Z,25.81
2022-10-17T13:49:15.474Z,25.78
2022-10-17T13:51:47.943Z,25.71
2022-10-17T13:54:43.339Z,25.65
2022-10-17T13:57:17.804Z,25.68
2022-10-17T13:59:47.944Z,25.69
2022-10-17T14:02:20.890Z,25.47
2022-10-17T14:10:38.939Z,25.33
2022-10-17T14:13:08.334Z,25.26
2022-10-17T14:15:36.791Z,25.28
2022-10-17T14:18:07.976Z,25.24
2022-10-17T14:23:38.143Z,25.01
2022-10-17T14:26:19.852Z,25.01
2022-10-17T14:28:49.641Z,25.06
2022-10-17T14:31:25.696Z,24.95
2022-10-17T14:33:54.031Z,24.94
2022-10-17T14:36:30.620Z,24.99
2022-10-17T14:38:57.375Z,24.84
2022-10-17T14:41:43.714Z,24.81
2022-10-17T14:44:32.182Z,24.89
2022-10-17T14:47:18.338Z,24.74
2022-10-17T14:49:51.327Z,24.61
2022-10-17T14:52:18.843Z,24.56
2022-10-17T14:54:48.046Z,24.53
2022-10-17T14:57:27.508Z,24.43
2022-10-17T14:59:56.305Z,24.43
2022-10-17T15:02:27.506Z,24.37
2022-10-17T15:04:54.947Z,24.32
2022-10-17T15:07:22.200Z,24.22
2022-10-17T15:09:50.628Z,24.07
2022-10-17T15:12:22.483Z,24.22
2022-10-17T15:14:50.698Z,24.08
2022-10-17T15:17:20.979Z,23.99
2022-10-17T15:19:48.494Z,23.95
2022-10-17T15:22:16.407Z,24.02
2022-10-17T15:24:43.150Z,23.92
2022-10-17T15:27:29.604Z,23.77
2022-10-17T15:29:56.374Z,23.80
2022-10-17T15:32:22.832Z,23.56
2022-10-17T15:34:49.479Z,23.57
2022-10-17T15:37:25.148Z,23.51
2022-10-17T15:39:54.578Z,23.57
2022-10-17T15:42:23.013Z,23.36
2022-10-17T15:44:50.424Z,23.35
2022-10-17T15:47:31.247Z,23.40
2022-10-17T15:49:58.605Z,23.22
2022-10-17T15:52:25.798Z,23.25
2022-10-17T15:54:53.355Z,23.11
2022-10-17T15:57:26.271Z,22.93
2022-10-17T15:59:54.374Z,22.95
2022-10-17T16:02:22.642Z,22.89
2022-10-17T16:04:50.624Z,22.69
2022-10-17T16:07:19.102Z,22.63
2022-10-17T16:09:45.963Z,22.50
2022-10-17T16:12:19.058Z,22.34
2022-10-17T16:14:45.636Z,22.36
2022-10-17T16:17:16.438Z,22.34
2022-10-17T16:19:43.595Z,22.27
2022-10-17T16:22:20.838Z,22.32
2022-10-17T16:24:47.415Z,22.17
2022-10-17T16:27:14.072Z,22.04
2022-10-17T16:29:40.589Z,22.06
2022-10-17T16:32:07.141Z,21.97
2022-10-17T16:34:33.716Z,21.94
2022-10-17T16:37:00.339Z,21.86
2022-10-17T16:41:57.678Z,21.70
2022-10-17T16:44:25.273Z,21.73
2022-10-17T16:46:51.807Z,21.66
2022-10-17T16:49:18.336Z,21.43
2022-10-17T16:51:44.961Z,21.33
2022-10-17T16:54:11.463Z,21.16
2022-10-17T16:56:38.013Z,21.00
2022-10-17T16:59:04.594Z,21.09
2022-10-17T17:01:31.116Z,21.05
2022-10-17T17:03:57.701Z,20.89
2022-10-17T17:06:27.521Z,20.75
2022-10-17T17:08:55.466Z,20.84
2022-10-17T17:11:24.605Z,20.76
2022-10-17T17:13:51.883Z,20.66
2022-10-17T17:16:23.765Z,20.58
2022-10-17T17:18:55.479Z,20.58
2022-10-17T17:21:22.482Z,20.53
2022-10-17T17:23:49.333Z,20.37
2022-10-17T17:26:18.971Z,20.33
2022-10-17T17:28:46.488Z,20.25
2022-10-17T17:31:16.636Z,20.23
2022-10-17T17:33:44.057Z,20.20
2022-10-17T17:36:13.813Z,20.27
2022-10-17T17:38:41.382Z,20.40
2022-10-17T17:41:07.971Z,20.30
2022-10-17T17:43:35.796Z,20.28
2022-10-17T17:46:02.645Z,20.21
2022-10-17T17:48:29.229Z,20.24
2022-10-17T17:50:55.860Z,20.13
2022-10-17T17:53:22.606Z,20.12
2022-10-17T17:56:00.224Z,20.16
2022-10-17T17:58:26.713Z,20.06
2022-10-17T18:00:53.308Z,20.05
2022-10-17T18:03:19.904Z,20.08
2022-10-17T18:05:46.468Z,20.01
2022-10-17T18:08:13.028Z,19.99
2022-10-17T18:10:39.566Z,19.99
2022-10-17T18:13:06.116Z,20.07
2022-10-17T18:15:32.747Z,19.91
2022-10-17T18:18:00.106Z,19.95
2022-10-17T18:20:27.748Z,19.87
2022-10-17T18:22:54.205Z,19.82
2022-10-17T18:25:20.714Z,19.76
2022-10-17T18:27:48.057Z,19.83
2022-10-17T18:30:14.830Z,19.84
2022-10-17T18:32:41.307Z,19.73
2022-10-17T18:35:08.156Z,19.67
2022-10-17T18:37:34.734Z,19.64
2022-10-17T18:40:03.085Z,19.65
2022-10-17T18:42:30.080Z,19.55
2022-10-17T18:44:56.876Z,19.54
2022-10-17T18:47:23.368Z,19.54
2022-10-17T18:49:49.993Z,19.44
2022-10-17T18:52:16.563Z,19.46
2022-10-17T18:54:43.068Z,19.44
2022-10-17T18:57:09.567Z,19.35
2022-10-17T18:59:37.023Z,19.11
2022-10-17T19:02:03.613Z,19.09
2022-10-17T19:04:30.094Z,18.90
2022-10-17T19:06:56.622Z,18.77
2022-10-17T19:09:23.119Z,18.69
2022-10-17T19:11:49.634Z,18.67
2022-10-17T19:14:16.232Z,18.58
2022-10-17T19:16:48.181Z,18.61
2022-10-17T19:19:17.990Z,18.73
2022-10-17T19:21:45.155Z,18.68
2022-10-17T19:24:15.970Z,18.77
2022-10-17T19:26:43.923Z,18.66
2022-10-17T19:29:13.913Z,18.72
2022-10-17T19:31:40.967Z,18.67
2022-10-17T19:34:07.570Z,18.64
2022-10-17T19:36:35.313Z,18.66
2022-10-17T19:39:05.708Z,18.64
2022-10-17T19:41:32.843Z,18.57
2022-10-17T19:44:00.043Z,18.68
2022-10-17T19:46:27.931Z,18.65
2022-10-17T19:48:54.461Z,18.59
2022-10-17T19:51:24.594Z,18.58
2022-10-17T19:53:52.352Z,18.58
2022-10-17T19:56:21.086Z,18.59
2022-10-17T19:58:49.085Z,18.59
2022-10-17T20:01:18.299Z,18.55
2022-10-17T20:03:45.069Z,18.48
2022-10-17T20:06:12.402Z,18.38
2022-10-17T20:08:40.208Z,18.35
2022-10-17T20:11:09.427Z,18.36
2022-10-17T20:13:36.776Z,18.28
2022-10-17T20:16:04.026Z,18.20
2022-10-17T20:18:30.895Z,18.20
2022-10-17T20:21:03.651Z,18.25
2022-10-17T20:23:30.169Z,18.38
2022-10-17T20:26:13.566Z,18.36
2022-10-17T20:28:48.863Z,18.33
2022-10-17T20:31:16.172Z,18.25
2022-10-17T20:33:42.715Z,18.22
2022-10-17T20:36:11.795Z,18.21
2022-10-17T20:38:38.290Z,18.19
2022-10-17T20:41:06.922Z,18.12
2022-10-17T20:43:34.979Z,18.03
2022-10-17T20:46:09.685Z,18.04
2022-10-17T20:48:42.373Z,18.02
2022-10-17T20:51:10.691Z,18.08
2022-10-17T20:53:37.929Z,18.07
2022-10-17T20:56:08.206Z,18.14
2022-10-17T20:58:35.211Z,18.17
2022-10-17T21:01:20.611Z,17.94
2022-10-17T21:03:47.448Z,17.74
2022-10-17T21:06:14.775Z,17.61
2022-10-17T21:08:41.581Z,17.65
2022-10-17T21:11:09.227Z,17.55
2022-10-17T21:13:35.762Z,17.43
2022-10-17T21:16:14.561Z,17.36
2022-10-17T21:18:41.921Z,17.44
2022-10-17T21:21:26.777Z,17.49
2022-10-17T21:23:56.165Z,17.39
2022-10-17T21:26:22.675Z,17.29
2022-10-17T21:28:50.232Z,17.23
2022-10-17T21:31:19.451Z,17.23
2022-10-17T21:33:48.659Z,17.14
2022-10-17T21:36:17.163Z,17.16
2022-10-17T21:38:48.594Z,17.13
2022-10-17T21:41:16.704Z,17.08
2022-10-17T21:43:43.614Z,16.97
2022-10-17T21:46:12.528Z,16.92
2022-10-17T21:48:39.392Z,16.97
2022-10-17T21:51:10.721Z,17.04
2022-10-17T21:53:37.525Z,17.08
2022-10-17T21:56:06.944Z,17.08
2022-10-17T21:58:34.026Z,17.13
2022-10-17T22:01:16.766Z,17.18
2022-10-17T22:03:48.274Z,17.08
2022-10-17T22:09:05.529Z,17.03
2022-10-17T22:11:35.195Z,16.95
2022-10-17T22:14:07.254Z,17.02
2022-10-17T22:16:34.723Z,16.87
2022-10-17T22:19:05.943Z,16.92
2022-10-17T22:21:34.726Z,16.88
2022-10-17T22:24:03.877Z,16.79
2022-10-17T22:26:32.772Z,16.85
2022-10-17T22:28:59.663Z,16.84
2022-10-17T22:31:26.631Z,16.94
2022-10-17T22:33:53.414Z,16.93
2022-10-17T22:36:20.215Z,16.93
2022-10-17T22:38:46.767Z,16.90
2022-10-17T22:41:13.306Z,16.84
2022-10-17T22:43:39.853Z,16.81
2022-10-17T22:46:07.454Z,16.83
2022-10-17T22:48:34.411Z,16.82
2022-10-17T22:51:01.350Z,16.84
2022-10-17T22:53:29.581Z,16.86
2022-10-17T22:55:58.554Z,16.90
2022-10-17T22:58:25.589Z,16.89
2022-10-17T23:00:53.315Z,16.84
2022-10-17T23:03:21.435Z,16.92
2022-10-17T23:05:48.346Z,16.88
2022-10-17T23:08:15.502Z,16.83
2022-10-17T23:10:42.202Z,16.83
2022-10-17T23:13:08.677Z,16.91
2022-10-17T23:15:35.364Z,16.98
2022-10-17T23:18:02.510Z,16.94
2022-10-17T23:20:30.398Z,16.90
2022-10-17T23:22:58.161Z,16.81
2022-10-17T23:25:25.476Z,16.72
2022-10-17T23:27:51.950Z,16.70
2022-10-17T23:30:18.633Z,16.70
2022-10-17T23:32:45.346Z,16.63
2022-10-17T23:35:12.461Z,16.68
2022-10-17T23:37:38.915Z,16.67
2022-10-17T23:40:06.580Z,16.68
2022-10-17T23:42:33.141Z,16.72
2022-10-17T23:44:59.636Z,16.83
2022-10-17T23:47:26.106Z,16.79
2022-10-17T23:49:52.651Z,16.86
2022-10-17T23:52:19.127Z,16.86
2022-10-17T23:54:45.690Z,16.83
2022-10-17T23:57:12.218Z,16.83
2022-10-17T23:59:38.739Z,16.79
